createdAt,value
2022-11-05T00:00:58.685Z,15.28
2022-11-05T00:02:29.999Z,15.22
2022-11-05T00:04:01.351Z,15.11
2022-11-05T00:05:37.707Z,14.84
2022-11-05T00:07:09.113Z,15.11
2022-11-05T00:08:40.591Z,14.75
2022-11-05T00:10:17.076Z,15.14
2022-11-05T00:11:48.405Z,14.87
2022-11-05T00:13:19.847Z,15.18
2022-11-05T00:14:51.089Z,14.21
2022-11-05T00:16:22.406Z,14.05
2022-11-05T00:17:53.696Z,13.87
2022-11-05T00:19:25.071Z,14.16
2022-11-05T00:20:56.480Z,13.82
2022-11-05T00:22:27.766Z,13.44
2022-11-05T00:23:59.165Z,13.97
2022-11-05T00:25:30.443Z,13.30
2022-11-05T00:27:01.746Z,13.40
2022-11-05T00:28:38.340Z,13.73
2022-11-05T00:30:27.536Z,13.60
2022-11-05T00:31:59.131Z,13.59
2022-11-05T00:33:30.468Z,13.46
2022-11-05T00:35:14.667Z,13.76
2022-11-05T00:36:48.265Z,13.81
2022-11-05T00:38:25.936Z,13.84
2022-11-05T00:39:58.047Z,14.12
2022-11-05T00:41:35.474Z,13.78
2022-11-05T00:43:18.062Z,13.64
2022-11-05T00:44:55.344Z,14.03
2022-11-05T00:46:26.798Z,13.80
2022-11-05T00:47:58.168Z,13.95
2022-11-05T00:49:29.483Z,14.54
2022-11-05T00:51:01.049Z,14.16
2022-11-05T00:52:32.340Z,13.37
2022-11-05T00:54:08.566Z,13.95
2022-11-05T00:55:40.114Z,13.59
2022-11-05T00:57:11.462Z,13.46
2022-11-05T00:58:47.668Z,13.55
2022-11-05T01:00:18.947Z,13.26
2022-11-05T01:01:50.679Z,12.59
2022-11-05T01:03:22.206Z,13.10
2022-11-05T01:05:25.469Z,12.63
2022-11-05T01:07:01.052Z,12.85
2022-11-05T01:08:32.545Z,12.39
2022-11-05T01:10:06.110Z,12.67
2022-11-05T01:11:44.138Z,12.04
2022-11-05T01:13:15.782Z,11.87
2022-11-05T01:14:47.569Z,12.38
2022-11-05T01:16:51.737Z,12.47
2022-11-05T01:18:24.640Z,12.06
2022-11-05T01:19:56.251Z,11.72
2022-11-05T01:23:23.150Z,12.15
2022-11-05T01:25:04.982Z,11.55
2022-11-05T01:26:46.841Z,11.80
2022-11-05T01:30:30.308Z,11.98
2022-11-05T01:32:01.821Z,11.88
2022-11-05T01:33:33.138Z,11.69
2022-11-05T01:35:04.580Z,12.40
2022-11-05T01:36:36.023Z,12.67
2022-11-05T01:38:07.495Z,12.07
2022-11-05T01:39:43.842Z,11.86
2022-11-05T01:41:32.051Z,11.21
2022-11-05T01:43:03.293Z,11.13
2022-11-05T01:44:34.519Z,11.56
2022-11-05T01:46:10.830Z,11.62
2022-11-05T01:47:42.354Z,11.74
2022-11-05T01:49:13.814Z,12.09
2022-11-05T01:50:46.562Z,11.56
2022-11-05T01:57:01.680Z,11.71
2022-11-05T01:58:33.080Z,12.26
2022-11-05T02:00:04.438Z,12.67
2022-11-05T02:01:35.806Z,12.60
2022-11-05T02:03:07.855Z,12.74
2022-11-05T02:04:39.461Z,13.06
2022-11-05T02:06:10.741Z,12.92
2022-11-05T02:08:02.148Z,13.21
2022-11-05T02:09:44.160Z,13.59
2022-11-05T02:11:15.455Z,13.04
2022-11-05T02:12:47.000Z,13.33
2022-11-05T02:14:18.302Z,13.42
2022-11-05T02:15:49.698Z,13.25
2022-11-05T02:17:20.955Z,13.32
2022-11-05T02:18:52.326Z,12.98
2022-11-05T02:20:23.903Z,13.77
2022-11-05T02:21:55.171Z,13.10
2022-11-05T02:23:26.488Z,13.39
2022-11-05T02:24:58.023Z,12.89
2022-11-05T02:26:29.315Z,13.12
2022-11-05T02:28:00.958Z,13.51
2022-11-05T02:29:32.335Z,13.42
2022-11-05T02:31:03.627Z,12.96
2022-11-05T02:32:34.926Z,12.89
2022-11-05T02:34:06.261Z,13.52
2022-11-05T02:35:37.517Z,13.25
2022-11-05T02:37:08.894Z,13.21
2022-11-05T02:38:40.480Z,13.49
2022-11-05T02:40:11.751Z,13.30
2022-11-05T02:41:43.455Z,12.63
2022-11-05T02:43:14.960Z,13.31
2022-11-05T02:44:46.311Z,12.90
2022-11-05T02:46:17.706Z,13.65
2022-11-05T02:47:49.210Z,12.82
2022-11-05T02:49:20.980Z,12.85
2022-11-05T02:50:52.253Z,13.24
2022-11-05T02:52:23.777Z,12.90
2022-11-05T02:53:55.203Z,11.99
2022-11-05T02:55:26.798Z,13.29
2022-11-05T02:56:58.177Z,13.21
2022-11-05T02:58:29.459Z,12.75
2022-11-05T03:00:00.747Z,13.23
2022-11-05T03:01:32.369Z,13.63
2022-11-05T03:03:03.862Z,14.44
2022-11-05T03:04:35.309Z,13.62
2022-11-05T03:06:06.588Z,13.12
2022-11-05T03:07:37.984Z,12.78
2022-11-05T03:09:09.294Z,13.41
2022-11-05T03:10:40.697Z,13.99
2022-11-05T03:12:11.879Z,13.95
2022-11-05T03:13:43.189Z,13.53
2022-11-05T03:15:14.452Z,14.05
2022-11-05T03:16:45.821Z,13.70
2022-11-05T03:18:17.391Z,13.97
2022-11-05T03:19:48.999Z,13.38
2022-11-05T03:21:20.256Z,13.34
2022-11-05T03:22:51.530Z,13.75
2022-11-05T03:24:24.204Z,14.04
2022-11-05T03:25:55.715Z,14.60
2022-11-05T03:27:26.962Z,14.40
2022-11-05T03:28:58.359Z,14.62
2022-11-05T03:30:29.658Z,14.79
2022-11-05T03:32:00.993Z,14.79
2022-11-05T03:33:32.263Z,14.75
2022-11-05T03:35:03.553Z,14.72
2022-11-05T03:36:34.811Z,15.57
2022-11-05T03:38:06.272Z,15.22
2022-11-05T03:39:37.472Z,15.89
2022-11-05T03:41:08.855Z,15.52
2022-11-05T03:42:40.228Z,14.86
2022-11-05T03:44:11.694Z,15.35
2022-11-05T03:45:42.973Z,16.24
2022-11-05T03:47:14.215Z,15.68
2022-11-05T03:48:45.610Z,15.76
2022-11-05T03:50:16.979Z,15.69
2022-11-05T03:51:48.274Z,15.70
2022-11-05T03:53:19.541Z,16.19
2022-11-05T03:54:51.024Z,16.55
2022-11-05T03:56:22.272Z,16.65
2022-11-05T03:57:53.656Z,17.13
2022-11-05T03:59:25.036Z,16.95
2022-11-05T04:00:56.277Z,16.13
2022-11-05T04:02:27.730Z,15.88
2022-11-05T04:03:59.038Z,16.05
2022-11-05T04:05:30.300Z,15.71
2022-11-05T04:07:01.773Z,15.50
2022-11-05T04:08:33.071Z,15.46
2022-11-05T04:10:04.408Z,15.05
2022-11-05T04:11:41.050Z,14.61
2022-11-05T04:13:12.639Z,14.35
2022-11-05T04:14:44.002Z,14.85
2022-11-05T04:16:15.245Z,14.62
2022-11-05T04:17:46.613Z,14.42
2022-11-05T04:19:21.273Z,14.98
2022-11-05T04:20:54.956Z,14.09
2022-11-05T04:22:26.307Z,14.60
2022-11-05T04:23:57.582Z,14.18
2022-11-05T04:25:28.976Z,14.90
2022-11-05T04:27:00.652Z,14.60
2022-11-05T04:28:32.016Z,14.33
2022-11-05T04:30:03.496Z,13.82
2022-11-05T04:31:34.773Z,14.35
2022-11-05T04:33:06.056Z,14.31
2022-11-05T04:34:37.443Z,13.82
2022-11-05T04:36:08.739Z,14.05
2022-11-05T04:37:40.006Z,14.04
2022-11-05T04:39:11.260Z,14.83
2022-11-05T04:40:42.486Z,14.26
2022-11-05T04:42:13.689Z,14.58
2022-11-05T04:43:44.972Z,15.13
2022-11-05T04:45:16.165Z,15.14
2022-11-05T04:46:47.653Z,15.85
2022-11-05T04:48:18.910Z,15.84
2022-11-05T04:49:50.327Z,15.75
2022-11-05T04:51:21.554Z,16.28
2022-11-05T04:52:53.036Z,16.24
2022-11-05T04:54:24.309Z,16.43
2022-11-05T04:55:56.041Z,16.38
2022-11-05T04:57:27.237Z,16.35
2022-11-05T04:58:58.515Z,16.79
2022-11-05T05:00:30.380Z,16.91
2022-11-05T05:02:01.806Z,17.41
2022-11-05T05:03:33.435Z,18.60
2022-11-05T05:05:04.691Z,19.11
2022-11-05T05:06:36.021Z,19.66
2022-11-05T05:08:07.342Z,20.60
2022-11-05T05:09:38.641Z,20.96
2022-11-05T05:11:09.962Z,21.78
2022-11-05T05:12:41.360Z,22.29
2022-11-05T05:14:12.601Z,22.56
2022-11-05T05:15:44.031Z,22.41
2022-11-05T05:17:15.617Z,22.63
2022-11-05T05:18:47.171Z,23.37
2022-11-05T05:20:18.599Z,23.64
2022-11-05T05:21:49.981Z,23.87
2022-11-05T05:23:21.366Z,24.59
2022-11-05T05:24:53.098Z,24.34
2022-11-05T05:26:24.489Z,25.10
2022-11-05T05:27:55.815Z,24.92
2022-11-05T05:29:27.299Z,25.46
2022-11-05T05:30:58.982Z,25.37
2022-11-05T05:32:30.416Z,24.76
2022-11-05T05:34:01.783Z,25.68
2022-11-05T05:35:33.090Z,24.75
2022-11-05T05:37:04.339Z,24.58
2022-11-05T05:38:35.601Z,24.39
2022-11-05T05:40:07.319Z,24.36
2022-11-05T05:41:38.814Z,24.44
2022-11-05T05:43:10.401Z,24.72
2022-11-05T05:44:42.062Z,24.11
2022-11-05T05:46:14.296Z,25.04
2022-11-05T05:47:45.631Z,23.36
2022-11-05T05:49:22.063Z,24.30
2022-11-05T05:50:53.435Z,24.51
2022-11-05T05:52:26.079Z,24.49
2022-11-05T05:53:57.279Z,22.96
2022-11-05T05:55:28.650Z,23.74
2022-11-05T05:56:59.949Z,23.39
2022-11-05T05:58:31.424Z,23.91
2022-11-05T06:00:07.830Z,23.57
2022-11-05T06:01:39.213Z,23.02
2022-11-05T06:03:11.083Z,23.12
2022-11-05T06:04:42.488Z,22.08
2022-11-05T06:06:13.797Z,21.39
2022-11-05T06:07:45.104Z,21.23
2022-11-05T06:09:16.366Z,22.39
2022-11-05T06:10:47.935Z,22.15
2022-11-05T06:12:19.639Z,21.82
2022-11-05T06:13:51.002Z,21.83
2022-11-05T06:15:22.263Z,20.89
2022-11-05T06:16:53.566Z,20.41
2022-11-05T06:18:24.829Z,19.69
2022-11-05T06:20:01.097Z,20.39
2022-11-05T06:21:33.563Z,19.93
2022-11-05T06:23:05.003Z,20.50
2022-11-05T06:24:37.396Z,20.91
2022-11-05T06:26:08.769Z,20.23
2022-11-05T06:27:40.111Z,20.42
2022-11-05T06:29:11.613Z,19.97
2022-11-05T06:30:42.863Z,19.31
2022-11-05T06:32:14.207Z,19.04
2022-11-05T06:33:45.631Z,19.41
2022-11-05T06:35:16.972Z,19.72
2022-11-05T06:36:48.245Z,20.26
2022-11-05T06:38:19.495Z,20.47
2022-11-05T06:39:50.777Z,19.11
2022-11-05T06:41:22.047Z,19.37
2022-11-05T06:42:53.415Z,19.72
2022-11-05T06:44:24.801Z,19.99
2022-11-05T06:46:16.171Z,20.11
2022-11-05T06:47:47.748Z,20.13
2022-11-05T06:49:19.125Z,19.94
2022-11-05T06:50:50.500Z,19.29
2022-11-05T06:52:21.757Z,20.39
2022-11-05T06:53:53.023Z,21.09
2022-11-05T06:55:54.047Z,20.77
2022-11-05T06:57:25.408Z,21.29
2022-11-05T06:58:56.788Z,21.14
2022-11-05T07:00:28.071Z,20.84
2022-11-05T07:02:32.360Z,20.75
2022-11-05T07:04:03.774Z,20.61
2022-11-05T07:05:35.027Z,20.93
2022-11-05T07:07:06.973Z,21.09
2022-11-05T07:08:38.346Z,20.86
2022-11-05T07:10:09.572Z,21.12
2022-11-05T07:11:40.757Z,21.64
2022-11-05T07:13:12.609Z,21.97
2022-11-05T07:14:44.050Z,22.13
2022-11-05T07:16:15.279Z,23.22
2022-11-05T07:17:46.572Z,23.48
2022-11-05T07:19:18.001Z,22.67
2022-11-05T07:20:59.506Z,22.55
2022-11-05T07:22:30.880Z,23.87
2022-11-05T07:24:02.238Z,23.19
2022-11-05T07:25:33.527Z,22.91
2022-11-05T07:27:04.799Z,23.30
2022-11-05T07:28:36.078Z,24.14
2022-11-05T07:30:07.449Z,24.94
2022-11-05T07:31:39.879Z,25.78
2022-11-05T07:33:11.395Z,24.74
2022-11-05T07:34:42.911Z,23.91
2022-11-05T07:36:14.184Z,25.45
2022-11-05T07:37:45.557Z,25.20
2022-11-05T07:39:16.732Z,25.42
2022-11-05T07:40:48.039Z,24.98
2022-11-05T07:42:29.308Z,24.83
2022-11-05T07:44:00.619Z,25.16
2022-11-05T07:45:33.146Z,25.62
2022-11-05T07:47:04.495Z,26.52
2022-11-05T07:48:35.696Z,26.24
2022-11-05T07:50:06.957Z,26.41
2022-11-05T07:51:38.570Z,26.44
2022-11-05T07:53:10.344Z,25.31
2022-11-05T07:54:41.829Z,26.29
2022-11-05T07:56:13.078Z,26.31
2022-11-05T07:57:44.274Z,26.15
2022-11-05T07:59:15.654Z,25.71
2022-11-05T08:00:47.459Z,24.94
2022-11-05T08:02:19.113Z,24.69
2022-11-05T08:03:50.521Z,26.29
2022-11-05T08:05:21.784Z,23.90
2022-11-05T08:07:15.299Z,24.78
2022-11-05T08:08:46.586Z,25.61
2022-11-05T08:10:17.977Z,25.42
2022-11-05T08:11:52.833Z,26.02
2022-11-05T08:13:24.506Z,27.47
2022-11-05T08:15:00.831Z,26.39
2022-11-05T08:16:32.393Z,26.74
2022-11-05T08:18:03.658Z,25.62
2022-11-05T08:19:34.973Z,25.62
2022-11-05T08:21:06.222Z,25.55
2022-11-05T08:22:37.463Z,25.14
2022-11-05T08:24:08.903Z,24.63
2022-11-05T08:25:40.214Z,25.02
2022-11-05T08:27:16.456Z,24.48
2022-11-05T08:28:47.674Z,24.29
2022-11-05T08:30:34.044Z,23.98
2022-11-05T08:32:05.209Z,23.48
2022-11-05T08:33:36.431Z,24.22
2022-11-05T08:35:07.661Z,23.65
2022-11-05T08:36:39.086Z,23.00
2022-11-05T08:38:10.629Z,22.01
2022-11-05T08:39:42.185Z,22.95
2022-11-05T08:41:13.506Z,22.96
2022-11-05T08:42:44.960Z,22.02
2022-11-05T08:44:16.253Z,23.02
2022-11-05T08:45:47.532Z,22.35
2022-11-05T08:47:18.968Z,22.35
2022-11-05T08:48:50.214Z,22.52
2022-11-05T08:50:21.509Z,20.23
2022-11-05T08:51:53.344Z,21.27
2022-11-05T08:53:24.673Z,20.17
2022-11-05T08:54:55.860Z,20.89
2022-11-05T08:56:27.067Z,20.55
2022-11-05T08:57:58.353Z,20.70
2022-11-05T08:59:29.875Z,20.39
2022-11-05T09:01:04.986Z,19.84
2022-11-05T09:02:36.645Z,20.34
2022-11-05T09:04:08.152Z,19.81
2022-11-05T09:05:39.471Z,19.69
2022-11-05T09:07:10.747Z,18.83
2022-11-05T09:08:42.180Z,18.91
2022-11-05T09:10:47.740Z,18.20
2022-11-05T09:12:19.027Z,17.94
2022-11-05T09:13:50.331Z,16.89
2022-11-05T09:15:21.740Z,17.47
2022-11-05T09:16:53.148Z,17.28
2022-11-05T09:18:24.430Z,16.69
2022-11-05T09:19:55.642Z,17.48
2022-11-05T09:21:27.110Z,16.73
2022-11-05T09:22:58.523Z,16.12
2022-11-05T09:24:29.860Z,16.84
2022-11-05T09:26:01.425Z,16.09
2022-11-05T09:27:33.104Z,16.46
2022-11-05T09:29:05.012Z,16.42
2022-11-05T09:30:36.338Z,16.15
2022-11-05T09:32:07.665Z,15.37
2022-11-05T09:33:38.893Z,14.95
2022-11-05T09:35:10.105Z,14.53
2022-11-05T09:36:41.604Z,14.73
2022-11-05T09:38:15.742Z,15.12
2022-11-05T09:39:47.255Z,14.55
2022-11-05T09:41:18.556Z,13.41
2022-11-05T09:42:49.926Z,11.88
2022-11-05T09:44:21.404Z,12.36
2022-11-05T09:45:52.746Z,12.37
2022-11-05T09:47:26.573Z,11.52
2022-11-05T09:48:57.858Z,11.84
2022-11-05T09:50:29.162Z,12.43
2022-11-05T09:52:00.557Z,11.55
2022-11-05T09:53:31.860Z,11.76
2022-11-05T09:55:03.122Z,11.93
2022-11-05T09:56:34.452Z,11.74
2022-11-05T09:58:05.729Z,11.73
2022-11-05T09:59:37.068Z,11.59
2022-11-05T10:01:08.630Z,11.56
2022-11-05T10:02:40.078Z,11.05
2022-11-05T10:04:11.577Z,11.01
2022-11-05T10:05:43.428Z,10.32
2022-11-05T10:07:15.077Z,8.97
2022-11-05T10:08:46.417Z,8.15
2022-11-05T10:10:17.692Z,8.33
2022-11-05T10:11:49.297Z,8.49
2022-11-05T10:13:20.557Z,9.12
2022-11-05T10:14:51.838Z,9.52
2022-11-05T10:16:23.293Z,8.12
2022-11-05T10:17:54.660Z,8.09
2022-11-05T10:19:26.077Z,8.03
2022-11-05T10:20:57.457Z,7.80
2022-11-05T10:22:28.841Z,7.53
2022-11-05T10:24:27.219Z,7.74
2022-11-05T10:25:58.744Z,7.49
2022-11-05T10:27:30.052Z,6.89
2022-11-05T10:29:01.483Z,5.77
2022-11-05T10:30:32.883Z,5.82
2022-11-05T10:32:04.429Z,5.99
2022-11-05T10:33:36.148Z,5.75
2022-11-05T10:35:07.441Z,5.77
2022-11-05T10:36:38.720Z,5.56
2022-11-05T10:38:10.119Z,5.29
2022-11-05T10:39:41.406Z,5.38
2022-11-05T10:41:12.682Z,5.26
2022-11-05T10:42:44.057Z,5.19
2022-11-05T10:44:18.779Z,4.99
2022-11-05T10:45:50.775Z,4.99
2022-11-05T10:47:22.075Z,4.97
2022-11-05T10:48:53.337Z,5.16
2022-11-05T10:50:24.658Z,5.59
2022-11-05T10:51:55.961Z,5.67
2022-11-05T10:53:27.311Z,6.11
2022-11-05T10:54:58.987Z,5.99
2022-11-05T10:56:30.271Z,6.55
2022-11-05T10:58:01.618Z,5.84
2022-11-05T10:59:33.117Z,5.65
2022-11-05T11:01:04.425Z,4.61
2022-11-05T11:02:35.970Z,5.39
2022-11-05T11:04:07.315Z,5.69
2022-11-05T11:05:38.759Z,5.40
2022-11-05T11:07:10.062Z,5.48
2022-11-05T11:08:51.518Z,5.51
2022-11-05T11:10:22.857Z,4.95
2022-11-05T11:11:54.188Z,4.72
2022-11-05T11:13:25.428Z,5.33
2022-11-05T11:14:56.941Z,4.98
2022-11-05T11:16:28.549Z,4.99
2022-11-05T11:18:00.276Z,5.00
2022-11-05T11:19:31.555Z,4.93
2022-11-05T11:21:02.872Z,4.19
2022-11-05T11:22:34.257Z,4.25
2022-11-05T11:24:05.578Z,4.67
2022-11-05T11:25:37.039Z,4.63
2022-11-05T11:27:08.401Z,4.58
2022-11-05T11:28:39.766Z,4.11
2022-11-05T11:30:11.004Z,4.02
2022-11-05T11:31:42.807Z,4.19
2022-11-05T11:33:14.365Z,4.37
2022-11-05T11:34:45.909Z,4.17
2022-11-05T11:36:17.168Z,4.56
2022-11-05T11:37:48.550Z,4.33
2022-11-05T11:39:19.985Z,4.63
2022-11-05T11:40:51.428Z,4.43
2022-11-05T11:42:22.832Z,4.48
2022-11-05T11:43:54.244Z,4.63
2022-11-05T11:45:31.106Z,4.12
2022-11-05T11:47:02.452Z,4.29
2022-11-05T11:48:33.736Z,4.17
2022-11-05T11:50:05.077Z,3.86
2022-11-05T11:51:36.437Z,4.45
2022-11-05T11:53:08.368Z,3.61
2022-11-05T11:54:39.751Z,3.70
2022-11-05T11:56:11.225Z,3.93
2022-11-05T11:57:42.627Z,4.02
2022-11-05T11:59:30.655Z,3.69
2022-11-05T12:01:38.139Z,3.86
2022-11-05T12:03:09.481Z,3.37
2022-11-05T12:04:40.887Z,3.73
2022-11-05T12:06:12.122Z,3.43
2022-11-05T12:07:43.402Z,3.45
2022-11-05T12:09:15.023Z,3.24
2022-11-05T12:10:46.451Z,3.12
2022-11-05T12:12:17.768Z,3.02
2022-11-05T12:13:49.067Z,3.19
2022-11-05T12:15:20.689Z,3.27
2022-11-05T12:16:52.065Z,2.91
2022-11-05T12:18:23.776Z,2.92
2022-11-05T12:19:55.170Z,3.25
2022-11-05T12:21:48.149Z,2.98
2022-11-05T12:23:23.160Z,2.90
2022-11-05T12:24:54.441Z,3.04
2022-11-05T12:26:25.876Z,2.91
2022-11-05T12:27:57.287Z,3.26
2022-11-05T12:29:46.116Z,3.36
2022-11-05T12:31:17.539Z,3.63
2022-11-05T12:32:48.884Z,3.35
2022-11-05T12:34:20.292Z,3.30
2022-11-05T12:35:56.490Z,3.33
2022-11-05T12:37:29.431Z,3.41
2022-11-05T12:39:00.804Z,3.53
2022-11-05T12:40:32.335Z,3.29
2022-11-05T12:42:03.750Z,3.42
2022-11-05T12:43:35.256Z,3.48
2022-11-05T12:45:06.604Z,3.32
2022-11-05T12:46:38.007Z,3.86
2022-11-05T12:48:09.312Z,3.79
2022-11-05T12:49:40.649Z,3.94
2022-11-05T12:51:12.052Z,4.06
2022-11-05T12:52:43.330Z,3.78
2022-11-05T12:54:14.830Z,3.78
2022-11-05T12:55:48.784Z,3.60
2022-11-05T12:57:20.590Z,3.82
2022-11-05T12:58:52.404Z,4.09
2022-11-05T13:00:23.932Z,4.13
2022-11-05T13:01:55.789Z,4.37
2022-11-05T13:03:27.093Z,4.29
2022-11-05T13:04:58.357Z,4.20
2022-11-05T13:06:29.729Z,4.36
2022-11-05T13:08:01.047Z,4.21
2022-11-05T13:09:32.614Z,4.02
2022-11-05T13:11:04.012Z,4.16
2022-11-05T13:12:35.302Z,4.05
2022-11-05T13:14:06.543Z,4.33
2022-11-05T13:15:38.000Z,4.48
2022-11-05T13:17:14.282Z,4.22
2022-11-05T13:18:45.630Z,4.40
2022-11-05T13:20:17.869Z,4.33
2022-11-05T13:21:49.223Z,4.14
2022-11-05T13:23:20.556Z,4.34
2022-11-05T13:24:51.850Z,4.33
2022-11-05T13:26:23.279Z,4.25
2022-11-05T13:27:55.726Z,3.96
2022-11-05T13:29:27.090Z,4.06
2022-11-05T13:30:58.532Z,3.70
2022-11-05T13:32:30.039Z,3.93
2022-11-05T13:34:03.492Z,4.08
2022-11-05T13:35:34.786Z,4.44
2022-11-05T13:37:06.075Z,4.17
2022-11-05T13:38:37.443Z,4.16
2022-11-05T13:40:08.995Z,3.90
2022-11-05T13:41:40.331Z,4.10
2022-11-05T13:43:11.793Z,3.91
2022-11-05T13:44:43.230Z,4.02
2022-11-05T13:46:14.795Z,3.83
2022-11-05T13:47:46.288Z,3.84
2022-11-05T13:49:17.599Z,3.80
2022-11-05T13:50:49.167Z,4.31
2022-11-05T13:52:20.501Z,3.87
2022-11-05T13:53:52.161Z,3.76
2022-11-05T13:55:23.511Z,3.77
2022-11-05T13:56:54.929Z,3.81
2022-11-05T13:58:26.362Z,3.78
2022-11-05T13:59:58.035Z,4.00
2022-11-05T14:01:29.665Z,4.06
2022-11-05T14:03:01.124Z,4.23
2022-11-05T14:04:32.557Z,4.23
2022-11-05T14:06:03.773Z,3.99
2022-11-05T14:07:35.163Z,3.60
2022-11-05T14:09:06.530Z,3.71
2022-11-05T14:10:37.961Z,3.92
2022-11-05T14:12:09.311Z,3.95
2022-11-05T14:13:40.921Z,3.79
2022-11-05T14:15:12.994Z,3.85
2022-11-05T14:16:44.669Z,3.97
2022-11-05T14:18:17.444Z,3.93
2022-11-05T14:19:49.290Z,4.09
2022-11-05T14:21:20.570Z,3.99
2022-11-05T14:22:51.832Z,3.38
2022-11-05T14:24:23.068Z,3.56
2022-11-05T14:25:54.337Z,3.21
2022-11-05T14:27:25.673Z,3.29
2022-11-05T14:29:02.092Z,3.24
2022-11-05T14:30:37.248Z,3.40
2022-11-05T14:32:11.222Z,3.11
2022-11-05T14:33:42.489Z,3.31
2022-11-05T14:35:13.822Z,3.53
2022-11-05T14:36:45.229Z,3.59
2022-11-05T14:38:16.467Z,3.36
2022-11-05T14:39:47.738Z,3.31
2022-11-05T14:41:19.103Z,3.13
2022-11-05T14:42:50.413Z,3.34
2022-11-05T14:44:21.938Z,3.14
2022-11-05T14:45:53.197Z,3.45
2022-11-05T14:47:24.543Z,3.68
2022-11-05T14:48:55.877Z,3.43
2022-11-05T14:50:27.602Z,3.33
2022-11-05T14:51:59.070Z,3.11
2022-11-05T14:53:30.381Z,3.20
2022-11-05T14:55:01.830Z,3.21
2022-11-05T14:56:33.095Z,3.24
2022-11-05T14:58:04.972Z,3.20
2022-11-05T14:59:36.679Z,3.06
2022-11-05T15:01:08.284Z,3.07
2022-11-05T15:02:39.679Z,2.96
2022-11-05T15:04:11.110Z,3.21
2022-11-05T15:05:42.404Z,2.98
2022-11-05T15:07:13.724Z,3.34
2022-11-05T15:08:45.294Z,3.10
2022-11-05T15:10:16.654Z,3.24
2022-11-05T15:11:47.960Z,3.18
2022-11-05T15:13:19.400Z,3.15
2022-11-05T15:14:50.743Z,3.12
2022-11-05T15:16:22.063Z,3.02
2022-11-05T15:17:53.404Z,3.08
2022-11-05T15:19:24.848Z,2.95
2022-11-05T15:20:56.309Z,3.38
2022-11-05T15:22:27.756Z,3.32
2022-11-05T15:23:59.495Z,3.00
2022-11-05T15:25:30.875Z,3.11
2022-11-05T15:27:02.086Z,3.15
2022-11-05T15:28:33.573Z,3.45
2022-11-05T15:30:05.190Z,3.33
2022-11-05T15:31:36.589Z,3.48
2022-11-05T15:33:07.833Z,3.52
2022-11-05T15:34:39.127Z,3.48
2022-11-05T15:36:10.564Z,3.46
2022-11-05T15:37:45.639Z,3.88
2022-11-05T15:39:29.088Z,3.57
2022-11-05T15:41:00.972Z,3.59
2022-11-05T15:42:32.488Z,3.66
2022-11-05T15:44:03.797Z,3.84
2022-11-05T15:45:35.200Z,3.87
2022-11-05T15:47:06.444Z,3.61
2022-11-05T15:48:37.737Z,3.77
2022-11-05T15:50:14.439Z,3.98
2022-11-05T15:51:46.592Z,3.79
2022-11-05T15:53:37.504Z,3.77
2022-11-05T15:55:13.644Z,3.72
2022-11-05T15:56:44.921Z,3.89
2022-11-05T15:58:16.279Z,3.65
2022-11-05T15:59:47.572Z,3.82
2022-11-05T16:01:18.900Z,3.60
2022-11-05T16:02:50.334Z,3.36
2022-11-05T16:04:21.790Z,3.21
2022-11-05T16:05:58.538Z,3.63
2022-11-05T16:07:30.055Z,3.47
2022-11-05T16:09:01.731Z,3.23
2022-11-05T16:10:33.028Z,3.33
2022-11-05T16:12:04.353Z,3.30
2022-11-05T16:13:36.037Z,3.26
2022-11-05T16:15:07.504Z,2.83
2022-11-05T16:16:39.270Z,3.21
2022-11-05T16:18:10.729Z,3.54
2022-11-05T16:19:42.234Z,3.27
2022-11-05T16:21:13.586Z,3.02
2022-11-05T16:22:44.848Z,3.03
2022-11-05T16:24:16.272Z,3.01
2022-11-05T16:25:47.675Z,2.97
2022-11-05T16:27:19.723Z,2.84
2022-11-05T16:28:51.419Z,2.89
2022-11-05T16:30:22.682Z,3.06
2022-11-05T16:31:53.998Z,2.79
2022-11-05T16:33:25.407Z,2.58
2022-11-05T16:34:56.697Z,2.81
2022-11-05T16:36:28.224Z,2.72
2022-11-05T16:37:59.619Z,2.62
2022-11-05T16:39:30.922Z,2.48
2022-11-05T16:41:02.224Z,2.51
2022-11-05T16:42:33.491Z,2.78
2022-11-05T16:44:04.747Z,2.66
2022-11-05T16:45:40.172Z,2.55
2022-11-05T16:47:12.739Z,2.42
2022-11-05T16:48:44.171Z,2.33
2022-11-05T16:50:15.682Z,2.45
2022-11-05T16:51:47.280Z,2.42
2022-11-05T16:53:18.807Z,2.43
2022-11-05T16:54:50.275Z,2.55
2022-11-05T16:56:21.569Z,2.46
2022-11-05T16:57:52.882Z,2.53
2022-11-05T16:59:24.198Z,2.60
2022-11-05T17:00:55.534Z,2.57
2022-11-05T17:02:27.033Z,2.56
2022-11-05T17:04:03.479Z,2.36
2022-11-05T17:05:37.310Z,2.36
2022-11-05T17:07:08.619Z,2.46
2022-11-05T17:08:39.991Z,2.53
2022-11-05T17:10:11.605Z,2.46
2022-11-05T17:11:43.759Z,2.47
2022-11-05T17:13:15.512Z,2.56
2022-11-05T17:14:46.832Z,2.53
2022-11-05T17:16:23.114Z,2.69
2022-11-05T17:18:06.077Z,2.48
2022-11-05T17:19:37.509Z,2.84
2022-11-05T17:21:08.754Z,2.57
2022-11-05T17:22:46.242Z,2.79
2022-11-05T17:24:22.647Z,2.68
2022-11-05T17:25:54.055Z,2.82
2022-11-05T17:27:25.276Z,2.98
2022-11-05T17:28:56.577Z,2.72
2022-11-05T17:30:27.961Z,3.13
2022-11-05T17:31:59.245Z,2.92
2022-11-05T17:33:30.748Z,2.79
2022-11-05T17:35:02.627Z,2.70
2022-11-05T17:36:34.014Z,3.08
2022-11-05T17:38:05.386Z,3.13
2022-11-05T17:39:36.830Z,2.90
2022-11-05T17:41:08.129Z,3.13
2022-11-05T17:42:39.585Z,2.91
2022-11-05T17:44:10.973Z,2.79
2022-11-05T17:45:42.409Z,2.81
2022-11-05T17:47:13.683Z,3.14
2022-11-05T17:48:45.168Z,2.57
2022-11-05T17:50:16.437Z,2.94
2022-11-05T17:51:47.663Z,2.97
2022-11-05T17:53:18.947Z,3.14
2022-11-05T17:54:50.201Z,2.79
2022-11-05T17:56:33.459Z,3.15
2022-11-05T17:58:05.606Z,2.71
2022-11-05T17:59:41.826Z,2.92
2022-11-05T18:01:13.078Z,3.09
2022-11-05T18:02:44.812Z,2.80
2022-11-05T18:04:16.100Z,2.62
2022-11-05T18:05:47.398Z,2.98
2022-11-05T18:07:18.867Z,2.94
2022-11-05T18:08:55.253Z,2.75
2022-11-05T18:10:26.549Z,2.70
2022-11-05T18:11:57.901Z,2.68
2022-11-05T18:13:29.383Z,2.79
2022-11-05T18:15:00.687Z,2.69
2022-11-05T18:16:32.105Z,2.55
2022-11-05T18:18:04.704Z,2.68
2022-11-05T18:19:36.335Z,2.82
2022-11-05T18:21:07.609Z,2.80
2022-11-05T18:25:02.370Z,2.83
2022-11-05T18:26:33.608Z,3.13
2022-11-05T18:28:04.997Z,2.85
2022-11-05T18:29:36.720Z,2.79
2022-11-05T18:31:08.488Z,3.13
2022-11-05T18:32:39.817Z,2.86
2022-11-05T18:34:11.104Z,2.74
2022-11-05T18:35:42.609Z,3.03
2022-11-05T18:37:14.019Z,3.00
2022-11-05T18:38:45.523Z,2.83
2022-11-05T18:40:16.911Z,2.95
2022-11-05T18:41:48.151Z,3.10
2022-11-05T18:43:19.421Z,2.90
2022-11-05T18:44:50.825Z,2.98
2022-11-05T18:46:51.124Z,3.28
2022-11-05T18:48:27.670Z,3.20
2022-11-05T18:49:59.287Z,2.96
2022-11-05T18:51:30.601Z,3.34
2022-11-05T18:55:08.356Z,3.05
2022-11-05T18:56:40.153Z,3.05
2022-11-05T18:58:11.810Z,3.09
2022-11-05T18:59:43.441Z,3.09
2022-11-05T19:01:14.876Z,3.08
2022-11-05T19:02:46.383Z,3.36
2022-11-05T19:04:17.768Z,3.36
2022-11-05T19:05:49.166Z,3.44
2022-11-05T19:07:20.458Z,3.26
2022-11-05T19:08:51.824Z,3.06
2022-11-05T19:14:04.793Z,3.20
2022-11-05T19:15:36.102Z,3.23
2022-11-05T19:17:07.378Z,3.44
2022-11-05T19:18:38.822Z,3.40
2022-11-05T19:20:10.395Z,3.28
2022-11-05T19:21:41.691Z,3.33
2022-11-05T19:25:33.964Z,3.50
2022-11-05T19:27:05.384Z,4.04
2022-11-05T19:28:36.790Z,3.85
2022-11-05T19:30:08.486Z,3.75
2022-11-05T19:31:39.768Z,3.66
2022-11-05T19:33:11.054Z,3.86
2022-11-05T19:34:42.356Z,3.63
2022-11-05T19:36:13.940Z,3.77
2022-11-05T19:37:45.199Z,3.80
2022-11-05T19:39:16.725Z,3.75
2022-11-05T19:40:48.035Z,3.83
2022-11-05T19:42:19.345Z,3.67
2022-11-05T19:43:50.604Z,3.87
2022-11-05T19:45:43.628Z,3.90
2022-11-05T19:47:31.376Z,3.99
2022-11-05T19:49:02.680Z,3.91
2022-11-05T19:50:34.183Z,3.81
2022-11-05T19:52:05.427Z,4.09
2022-11-05T19:53:36.686Z,4.15
2022-11-05T19:55:12.155Z,3.99
2022-11-05T19:56:43.752Z,4.35
2022-11-05T19:58:15.312Z,3.89
2022-11-05T19:59:46.846Z,4.06
2022-11-05T20:01:18.495Z,4.09
2022-11-05T20:02:50.099Z,4.16
2022-11-05T20:04:21.591Z,4.01
2022-11-05T20:05:52.949Z,4.45
2022-11-05T20:07:25.063Z,4.48
2022-11-05T20:09:19.875Z,4.75
2022-11-05T20:10:51.671Z,4.42
2022-11-05T20:12:22.925Z,4.48
2022-11-05T20:13:54.509Z,4.40
2022-11-05T20:15:25.902Z,4.46
2022-11-05T20:16:57.211Z,4.22
2022-11-05T20:18:48.510Z,4.35
2022-11-05T20:20:19.769Z,4.49
2022-11-05T20:21:51.593Z,4.80
2022-11-05T20:23:22.886Z,5.04
2022-11-05T20:24:54.196Z,4.43
2022-11-05T20:26:25.441Z,4.74
2022-11-05T20:27:56.763Z,4.59
2022-11-05T20:29:35.058Z,4.60
2022-11-05T20:31:06.715Z,4.89